sensor_id;sensor_type;location;lat;lon;timestamp;temperature;humidity
27188;DHT22;14708;50.872;5.306;2023-06-10T00:02:00;25.30;51.20
27188;DHT22;14708;50.872;5.306;2023-06-10T00:04:27;25.20;51.20
27188;DHT22;14708;50.872;5.306;2023-06-10T00:06:52;25.30;51.00
27188;DHT22;14708;50.872;5.306;2023-06-10T00:09:19;25.20;51.10
27188;DHT22;14708;50.872;5.306;2023-06-10T00:11:46;25.20;51.80
27188;DHT22;14708;50.872;5.306;2023-06-10T00:14:13;25.20;51.30
27188;DHT22;14708;50.872;5.306;2023-06-10T00:16:39;25.20;51.20
27188;DHT22;14708;50.872;5.306;2023-06-10T00:19:04;25.20;51.20
27188;DHT22;14708;50.872;5.306;2023-06-10T00:21:31;25.20;51.20
27188;DHT22;14708;50.872;5.306;2023-06-10T00:24:08;25.20;51.30
27188;DHT22;14708;50.872;5.306;2023-06-10T00:26:40;25.20;51.40
27188;DHT22;14708;50.872;5.306;2023-06-10T00:29:06;25.20;51.30
27188;DHT22;14708;50.872;5.306;2023-06-10T00:31:34;25.20;51.30
27188;DHT22;14708;50.872;5.306;2023-06-10T00:34:00;25.20;51.40
27188;DHT22;14708;50.872;5.306;2023-06-10T00:36:26;25.20;51.40
27188;DHT22;14708;50.872;5.306;2023-06-10T00:38:52;25.20;51.40
27188;DHT22;14708;50.872;5.306;2023-06-10T00:41:17;25.20;51.30
27188;DHT22;14708;50.872;5.306;2023-06-10T00:43:43;25.20;51.40
27188;DHT22;14708;50.872;5.306;2023-06-10T00:46:10;25.20;51.30
27188;DHT22;14708;50.872;5.306;2023-06-10T00:48:37;25.20;51.50
27188;DHT22;14708;50.872;5.306;2023-06-10T00:51:05;25.20;51.30
27188;DHT22;14708;50.872;5.306;2023-06-10T00:53:31;25.20;51.40
27188;DHT22;14708;50.872;5.306;2023-06-10T00:55:58;25.20;51.60
27188;DHT22;14708;50.872;5.306;2023-06-10T00:58:24;25.20;51.70
27188;DHT22;14708;50.872;5.306;2023-06-10T01:00:51;25.10;51.30
27188;DHT22;14708;50.872;5.306;2023-06-10T01:03:17;25.10;51.70
27188;DHT22;14708;50.872;5.306;2023-06-10T01:05:45;25.10;51.60
27188;DHT22;14708;50.872;5.306;2023-06-10T01:08:28;25.10;51.60
27188;DHT22;14708;50.872;5.306;2023-06-10T01:11:00;25.10;51.60
27188;DHT22;14708;50.872;5.306;2023-06-10T01:13:28;25.10;51.50
27188;DHT22;14708;50.872;5.306;2023-06-10T01:15:58;25.10;51.50
27188;DHT22;14708;50.872;5.306;2023-06-10T01:18:29;25.10;51.60
27188;DHT22;14708;50.872;5.306;2023-06-10T01:20:55;25.10;51.70
27188;DHT22;14708;50.872;5.306;2023-06-10T01:23:22;25.10;51.60
27188;DHT22;14708;50.872;5.306;2023-06-10T01:26:02;25.10;51.60
27188;DHT22;14708;50.872;5.306;2023-06-10T01:28:33;25.10;51.70
27188;DHT22;14708;50.872;5.306;2023-06-10T01:31:20;25.10;51.80
27188;DHT22;14708;50.872;5.306;2023-06-10T01:33:53;25.10;51.70
27188;DHT22;14708;50.872;5.306;2023-06-10T01:36:20;25.00;52.30
27188;DHT22;14708;50.872;5.306;2023-06-10T01:38:47;25.00;51.80
27188;DHT22;14708;50.872;5.306;2023-06-10T01:41:16;25.00;51.90
27188;DHT22;14708;50.872;5.306;2023-06-10T01:43:43;25.00;51.80
27188;DHT22;14708;50.872;5.306;2023-06-10T01:46:09;25.00;51.80
27188;DHT22;14708;50.872;5.306;2023-06-10T01:48:35;25.00;51.80
27188;DHT22;14708;50.872;5.306;2023-06-10T01:51:00;25.00;51.70
27188;DHT22;14708;50.872;5.306;2023-06-10T01:53:26;25.00;51.80
27188;DHT22;14708;50.872;5.306;2023-06-10T01:55:52;25.00;51.80
27188;DHT22;14708;50.872;5.306;2023-06-10T01:58:17;25.00;51.90
27188;DHT22;14708;50.872;5.306;2023-06-10T02:00:43;25.00;52.00
27188;DHT22;14708;50.872;5.306;2023-06-10T02:03:08;25.00;52.00
27188;DHT22;14708;50.872;5.306;2023-06-10T02:05:34;25.00;51.80
27188;DHT22;14708;50.872;5.306;2023-06-10T02:08:00;25.00;52.00
27188;DHT22;14708;50.872;5.306;2023-06-10T02:10:26;25.00;52.20
27188;DHT22;14708;50.872;5.306;2023-06-10T02:12:51;25.00;52.00
27188;DHT22;14708;50.872;5.306;2023-06-10T02:15:17;25.00;51.90
27188;DHT22;14708;50.872;5.306;2023-06-10T02:17:42;25.00;51.90
27188;DHT22;14708;50.872;5.306;2023-06-10T02:20:10;25.00;52.00
27188;DHT22;14708;50.872;5.306;2023-06-10T02:22:36;25.00;52.00
27188;DHT22;14708;50.872;5.306;2023-06-10T02:25:03;25.00;52.00
27188;DHT22;14708;50.872;5.306;2023-06-10T02:27:29;24.90;52.00
27188;DHT22;14708;50.872;5.306;2023-06-10T02:29:56;24.90;51.90
27188;DHT22;14708;50.872;5.306;2023-06-10T02:32:22;24.90;52.10
27188;DHT22;14708;50.872;5.306;2023-06-10T02:34:48;24.90;52.00
27188;DHT22;14708;50.872;5.306;2023-06-10T02:37:15;24.90;52.10
27188;DHT22;14708;50.872;5.306;2023-06-10T02:39:40;24.90;52.20
27188;DHT22;14708;50.872;5.306;2023-06-10T02:42:06;24.90;52.20
27188;DHT22;14708;50.872;5.306;2023-06-10T02:44:32;24.90;52.20
27188;DHT22;14708;50.872;5.306;2023-06-10T02:46:58;24.90;52.20
27188;DHT22;14708;50.872;5.306;2023-06-10T02:49:23;24.90;52.30
27188;DHT22;14708;50.872;5.306;2023-06-10T02:51:50;24.90;52.20
27188;DHT22;14708;50.872;5.306;2023-06-10T02:54:25;25.00;52.40
27188;DHT22;14708;50.872;5.306;2023-06-10T02:56:51;24.90;52.20
27188;DHT22;14708;50.872;5.306;2023-06-10T02:59:18;24.90;52.30
27188;DHT22;14708;50.872;5.306;2023-06-10T03:01:43;24.90;52.20
27188;DHT22;14708;50.872;5.306;2023-06-10T03:04:09;24.90;52.20
27188;DHT22;14708;50.872;5.306;2023-06-10T03:06:35;24.90;52.30
27188;DHT22;14708;50.872;5.306;2023-06-10T03:09:01;24.90;52.20
27188;DHT22;14708;50.872;5.306;2023-06-10T03:11:27;24.90;52.20
27188;DHT22;14708;50.872;5.306;2023-06-10T03:13:53;24.90;52.20
27188;DHT22;14708;50.872;5.306;2023-06-10T03:16:21;24.90;52.20
27188;DHT22;14708;50.872;5.306;2023-06-10T03:18:47;24.90;52.10
27188;DHT22;14708;50.872;5.306;2023-06-10T03:21:12;24.90;52.20
27188;DHT22;14708;50.872;5.306;2023-06-10T03:23:38;24.90;52.30
27188;DHT22;14708;50.872;5.306;2023-06-10T03:26:04;24.90;52.40
27188;DHT22;14708;50.872;5.306;2023-06-10T03:28:33;24.90;52.10
27188;DHT22;14708;50.872;5.306;2023-06-10T03:30:58;24.90;52.50
27188;DHT22;14708;50.872;5.306;2023-06-10T03:33:24;24.80;52.30
27188;DHT22;14708;50.872;5.306;2023-06-10T03:35:50;24.80;52.30
27188;DHT22;14708;50.872;5.306;2023-06-10T03:38:16;24.80;52.30
27188;DHT22;14708;50.872;5.306;2023-06-10T03:40:41;24.80;52.50
27188;DHT22;14708;50.872;5.306;2023-06-10T03:43:07;24.80;52.30
27188;DHT22;14708;50.872;5.306;2023-06-10T03:45:33;24.80;52.60
27188;DHT22;14708;50.872;5.306;2023-06-10T03:47:58;24.80;52.40
27188;DHT22;14708;50.872;5.306;2023-06-10T03:50:24;24.90;52.50
27188;DHT22;14708;50.872;5.306;2023-06-10T03:52:50;24.80;52.40
27188;DHT22;14708;50.872;5.306;2023-06-10T03:55:16;24.80;52.40
27188;DHT22;14708;50.872;5.306;2023-06-10T03:57:43;24.80;52.40
27188;DHT22;14708;50.872;5.306;2023-06-10T04:00:09;24.80;52.50
27188;DHT22;14708;50.872;5.306;2023-06-10T04:02:38;24.80;52.40
27188;DHT22;14708;50.872;5.306;2023-06-10T04:05:14;24.80;52.40
27188;DHT22;14708;50.872;5.306;2023-06-10T04:07:40;24.80;52.40
27188;DHT22;14708;50.872;5.306;2023-06-10T04:10:08;24.80;52.40
27188;DHT22;14708;50.872;5.306;2023-06-10T04:12:34;24.80;52.40
27188;DHT22;14708;50.872;5.306;2023-06-10T04:15:00;24.90;52.50
27188;DHT22;14708;50.872;5.306;2023-06-10T04:17:26;24.80;52.40
27188;DHT22;14708;50.872;5.306;2023-06-10T04:19:52;24.90;52.60
27188;DHT22;14708;50.872;5.306;2023-06-10T04:22:18;24.90;52.50
27188;DHT22;14708;50.872;5.306;2023-06-10T04:24:44;24.90;52.50
27188;DHT22;14708;50.872;5.306;2023-06-10T04:27:10;24.90;52.60
27188;DHT22;14708;50.872;5.306;2023-06-10T04:29:36;24.90;52.40
27188;DHT22;14708;50.872;5.306;2023-06-10T04:32:02;24.90;52.40
27188;DHT22;14708;50.872;5.306;2023-06-10T04:34:28;24.90;52.50
27188;DHT22;14708;50.872;5.306;2023-06-10T04:36:54;24.90;52.50
27188;DHT22;14708;50.872;5.306;2023-06-10T04:39:19;25.00;52.30
27188;DHT22;14708;50.872;5.306;2023-06-10T04:41:46;25.00;52.30
27188;DHT22;14708;50.872;5.306;2023-06-10T04:44:12;25.00;52.20
27188;DHT22;14708;50.872;5.306;2023-06-10T04:46:37;25.00;52.30
27188;DHT22;14708;50.872;5.306;2023-06-10T04:49:03;25.10;52.20
27188;DHT22;14708;50.872;5.306;2023-06-10T04:51:30;25.10;51.90
27188;DHT22;14708;50.872;5.306;2023-06-10T04:53:57;25.10;51.90
27188;DHT22;14708;50.872;5.306;2023-06-10T04:56:22;25.10;51.90
27188;DHT22;14708;50.872;5.306;2023-06-10T04:58:49;25.10;51.90
27188;DHT22;14708;50.872;5.306;2023-06-10T05:01:15;25.20;52.00
27188;DHT22;14708;50.872;5.306;2023-06-10T05:03:40;25.20;51.80
27188;DHT22;14708;50.872;5.306;2023-06-10T05:06:06;25.20;51.80
27188;DHT22;14708;50.872;5.306;2023-06-10T05:08:33;25.20;51.80
27188;DHT22;14708;50.872;5.306;2023-06-10T05:10:58;25.20;51.80
27188;DHT22;14708;50.872;5.306;2023-06-10T05:13:24;25.30;51.80
27188;DHT22;14708;50.872;5.306;2023-06-10T05:15:49;25.30;51.90
27188;DHT22;14708;50.872;5.306;2023-06-10T05:18:15;25.30;51.70
27188;DHT22;14708;50.872;5.306;2023-06-10T05:20:41;25.30;51.70
27188;DHT22;14708;50.872;5.306;2023-06-10T05:23:06;25.30;51.60
27188;DHT22;14708;50.872;5.306;2023-06-10T05:25:32;25.40;51.60
27188;DHT22;14708;50.872;5.306;2023-06-10T05:27:58;25.40;51.60
27188;DHT22;14708;50.872;5.306;2023-06-10T05:30:24;25.40;51.70
27188;DHT22;14708;50.872;5.306;2023-06-10T05:32:50;25.40;51.80
27188;DHT22;14708;50.872;5.306;2023-06-10T05:35:19;25.40;51.60
27188;DHT22;14708;50.872;5.306;2023-06-10T05:37:44;25.40;51.50
27188;DHT22;14708;50.872;5.306;2023-06-10T05:40:11;25.50;51.50
27188;DHT22;14708;50.872;5.306;2023-06-10T05:42:36;25.50;51.50
27188;DHT22;14708;50.872;5.306;2023-06-10T05:45:02;25.50;51.60
27188;DHT22;14708;50.872;5.306;2023-06-10T05:47:28;25.60;51.50
27188;DHT22;14708;50.872;5.306;2023-06-10T05:49:54;25.60;51.60
27188;DHT22;14708;50.872;5.306;2023-06-10T05:52:20;25.60;51.50
27188;DHT22;14708;50.872;5.306;2023-06-10T05:54:46;25.70;51.30
27188;DHT22;14708;50.872;5.306;2023-06-10T05:57:11;25.70;51.30
27188;DHT22;14708;50.872;5.306;2023-06-10T05:59:37;25.70;51.50
27188;DHT22;14708;50.872;5.306;2023-06-10T06:02:03;25.80;51.70
27188;DHT22;14708;50.872;5.306;2023-06-10T06:04:28;25.80;51.70
27188;DHT22;14708;50.872;5.306;2023-06-10T06:06:54;25.80;52.10
27188;DHT22;14708;50.872;5.306;2023-06-10T06:09:20;25.70;50.40
27188;DHT22;14708;50.872;5.306;2023-06-10T06:11:45;25.60;50.50
27188;DHT22;14708;50.872;5.306;2023-06-10T06:14:11;25.60;50.60
27188;DHT22;14708;50.872;5.306;2023-06-10T06:16:37;25.50;50.60
27188;DHT22;14708;50.872;5.306;2023-06-10T06:19:02;25.40;50.60
27188;DHT22;14708;50.872;5.306;2023-06-10T06:21:28;25.40;50.60
27188;DHT22;14708;50.872;5.306;2023-06-10T06:23:53;25.30;50.70
27188;DHT22;14708;50.872;5.306;2023-06-10T06:26:19;25.30;51.20
27188;DHT22;14708;50.872;5.306;2023-06-10T06:28:45;25.30;51.30
27188;DHT22;14708;50.872;5.306;2023-06-10T06:31:10;25.30;51.10
27188;DHT22;14708;50.872;5.306;2023-06-10T06:33:36;25.30;50.80
27188;DHT22;14708;50.872;5.306;2023-06-10T06:36:02;25.30;50.50
27188;DHT22;14708;50.872;5.306;2023-06-10T06:38:27;25.30;51.00
27188;DHT22;14708;50.872;5.306;2023-06-10T06:40:53;25.30;51.00
27188;DHT22;14708;50.872;5.306;2023-06-10T06:43:19;25.40;51.30
27188;DHT22;14708;50.872;5.306;2023-06-10T06:45:45;25.40;51.30
27188;DHT22;14708;50.872;5.306;2023-06-10T06:48:11;25.50;51.60
27188;DHT22;14708;50.872;5.306;2023-06-10T06:50:37;25.60;51.70
27188;DHT22;14708;50.872;5.306;2023-06-10T06:53:03;25.60;51.60
27188;DHT22;14708;50.872;5.306;2023-06-10T06:55:29;25.70;51.80
27188;DHT22;14708;50.872;5.306;2023-06-10T06:57:55;25.70;51.50
27188;DHT22;14708;50.872;5.306;2023-06-10T07:00:21;25.70;51.80
27188;DHT22;14708;50.872;5.306;2023-06-10T07:02:47;25.60;51.70
27188;DHT22;14708;50.872;5.306;2023-06-10T07:05:13;25.60;52.00
27188;DHT22;14708;50.872;5.306;2023-06-10T07:07:39;25.50;51.90
27188;DHT22;14708;50.872;5.306;2023-06-10T07:10:05;25.50;51.90
27188;DHT22;14708;50.872;5.306;2023-06-10T07:12:30;25.60;51.80
27188;DHT22;14708;50.872;5.306;2023-06-10T07:14:56;25.70;52.20
27188;DHT22;14708;50.872;5.306;2023-06-10T07:17:21;25.80;52.30
27188;DHT22;14708;50.872;5.306;2023-06-10T07:19:47;25.80;52.60
27188;DHT22;14708;50.872;5.306;2023-06-10T07:22:13;25.80;52.50
27188;DHT22;14708;50.872;5.306;2023-06-10T07:24:39;25.80;52.30
27188;DHT22;14708;50.872;5.306;2023-06-10T07:27:05;25.90;52.70
27188;DHT22;14708;50.872;5.306;2023-06-10T07:29:31;25.90;52.90
27188;DHT22;14708;50.872;5.306;2023-06-10T07:31:56;25.90;52.90
27188;DHT22;14708;50.872;5.306;2023-06-10T07:34:22;25.90;52.40
27188;DHT22;14708;50.872;5.306;2023-06-10T07:36:48;25.80;52.60
27188;DHT22;14708;50.872;5.306;2023-06-10T07:39:13;25.70;52.00
27188;DHT22;14708;50.872;5.306;2023-06-10T07:41:39;25.70;53.40
27188;DHT22;14708;50.872;5.306;2023-06-10T07:44:04;25.70;53.30
27188;DHT22;14708;50.872;5.306;2023-06-10T07:46:30;25.60;53.30
27188;DHT22;14708;50.872;5.306;2023-06-10T07:48:56;25.60;53.40
27188;DHT22;14708;50.872;5.306;2023-06-10T07:51:22;25.60;53.70
27188;DHT22;14708;50.872;5.306;2023-06-10T07:53:47;25.60;53.70
27188;DHT22;14708;50.872;5.306;2023-06-10T07:56:13;25.60;53.70
27188;DHT22;14708;50.872;5.306;2023-06-10T07:58:39;25.70;53.70
27188;DHT22;14708;50.872;5.306;2023-06-10T08:01:04;25.80;53.50
27188;DHT22;14708;50.872;5.306;2023-06-10T08:03:30;25.70;53.90
27188;DHT22;14708;50.872;5.306;2023-06-10T08:05:56;25.70;53.50
27188;DHT22;14708;50.872;5.306;2023-06-10T08:08:21;25.70;52.80
27188;DHT22;14708;50.872;5.306;2023-06-10T08:10:47;25.70;53.30
27188;DHT22;14708;50.872;5.306;2023-06-10T08:13:15;25.70;53.40
27188;DHT22;14708;50.872;5.306;2023-06-10T08:15:41;25.70;53.50
27188;DHT22;14708;50.872;5.306;2023-06-10T08:18:06;25.70;54.00
27188;DHT22;14708;50.872;5.306;2023-06-10T08:20:32;25.70;53.60
27188;DHT22;14708;50.872;5.306;2023-06-10T08:22:58;25.60;53.70
27188;DHT22;14708;50.872;5.306;2023-06-10T08:25:23;25.70;54.40
27188;DHT22;14708;50.872;5.306;2023-06-10T08:27:49;25.70;54.20
27188;DHT22;14708;50.872;5.306;2023-06-10T08:30:16;25.80;55.10
27188;DHT22;14708;50.872;5.306;2023-06-10T08:32:42;25.80;54.90
27188;DHT22;14708;50.872;5.306;2023-06-10T08:35:08;25.90;55.40
27188;DHT22;14708;50.872;5.306;2023-06-10T08:37:33;26.00;55.00
27188;DHT22;14708;50.872;5.306;2023-06-10T08:39:59;26.00;54.70
27188;DHT22;14708;50.872;5.306;2023-06-10T08:42:28;25.90;54.30
27188;DHT22;14708;50.872;5.306;2023-06-10T08:45:01;25.80;54.40
27188;DHT22;14708;50.872;5.306;2023-06-10T08:47:29;25.80;54.60
27188;DHT22;14708;50.872;5.306;2023-06-10T08:49:57;25.80;55.50
27188;DHT22;14708;50.872;5.306;2023-06-10T08:52:32;25.80;55.30
27188;DHT22;14708;50.872;5.306;2023-06-10T08:55:03;25.80;54.60
27188;DHT22;14708;50.872;5.306;2023-06-10T08:57:30;25.80;54.80
27188;DHT22;14708;50.872;5.306;2023-06-10T08:59:57;25.80;54.90
27188;DHT22;14708;50.872;5.306;2023-06-10T09:02:24;25.80;55.10
27188;DHT22;14708;50.872;5.306;2023-06-10T09:04:50;25.70;55.10
27188;DHT22;14708;50.872;5.306;2023-06-10T09:07:16;25.70;55.10
27188;DHT22;14708;50.872;5.306;2023-06-10T09:09:43;25.70;55.00
27188;DHT22;14708;50.872;5.306;2023-06-10T09:12:10;25.80;55.70
27188;DHT22;14708;50.872;5.306;2023-06-10T09:14:36;25.80;55.50
27188;DHT22;14708;50.872;5.306;2023-06-10T09:17:03;25.90;55.50
27188;DHT22;14708;50.872;5.306;2023-06-10T09:19:29;25.80;55.10
27188;DHT22;14708;50.872;5.306;2023-06-10T09:21:55;25.80;55.30
27188;DHT22;14708;50.872;5.306;2023-06-10T09:24:22;25.80;55.10
27188;DHT22;14708;50.872;5.306;2023-06-10T09:26:49;25.70;54.80
27188;DHT22;14708;50.872;5.306;2023-06-10T09:29:16;25.80;54.60
27188;DHT22;14708;50.872;5.306;2023-06-10T09:31:43;25.90;54.40
27188;DHT22;14708;50.872;5.306;2023-06-10T09:36:36;26.00;54.20
27188;DHT22;14708;50.872;5.306;2023-06-10T09:39:03;26.10;54.10
27188;DHT22;14708;50.872;5.306;2023-06-10T09:41:39;26.00;54.20
27188;DHT22;14708;50.872;5.306;2023-06-10T09:44:15;26.00;54.10
27188;DHT22;14708;50.872;5.306;2023-06-10T09:46:41;26.10;54.10
27188;DHT22;14708;50.872;5.306;2023-06-10T09:49:07;26.10;54.30
27188;DHT22;14708;50.872;5.306;2023-06-10T09:51:32;26.10;54.10
27188;DHT22;14708;50.872;5.306;2023-06-10T09:53:59;26.10;53.80
27188;DHT22;14708;50.872;5.306;2023-06-10T09:56:34;26.10;54.20
27188;DHT22;14708;50.872;5.306;2023-06-10T09:59:00;26.10;54.30
27188;DHT22;14708;50.872;5.306;2023-06-10T10:01:26;26.10;54.90
27188;DHT22;14708;50.872;5.306;2023-06-10T10:03:52;26.10;54.90
27188;DHT22;14708;50.872;5.306;2023-06-10T10:06:19;26.10;54.80
27188;DHT22;14708;50.872;5.306;2023-06-10T10:08:46;26.10;54.50
27188;DHT22;14708;50.872;5.306;2023-06-10T10:11:12;26.10;55.00
27188;DHT22;14708;50.872;5.306;2023-06-10T10:13:39;26.00;54.90
27188;DHT22;14708;50.872;5.306;2023-06-10T10:16:17;26.00;55.20
27188;DHT22;14708;50.872;5.306;2023-06-10T10:18:54;25.90;55.10
27188;DHT22;14708;50.872;5.306;2023-06-10T10:21:23;25.90;55.00
27188;DHT22;14708;50.872;5.306;2023-06-10T10:24:00;25.90;55.30
27188;DHT22;14708;50.872;5.306;2023-06-10T10:26:27;26.00;55.10
27188;DHT22;14708;50.872;5.306;2023-06-10T10:31:35;25.90;54.80
27188;DHT22;14708;50.872;5.306;2023-06-10T10:34:06;25.80;54.50
27188;DHT22;14708;50.872;5.306;2023-06-10T10:36:32;25.80;54.80
27188;DHT22;14708;50.872;5.306;2023-06-10T10:38:59;25.80;54.40
27188;DHT22;14708;50.872;5.306;2023-06-10T10:41:28;25.80;54.30
27188;DHT22;14708;50.872;5.306;2023-06-10T10:43:54;25.80;54.10
27188;DHT22;14708;50.872;5.306;2023-06-10T10:46:20;26.00;53.10
27188;DHT22;14708;50.872;5.306;2023-06-10T10:48:52;26.10;52.20
27188;DHT22;14708;50.872;5.306;2023-06-10T10:51:18;26.10;52.00
27188;DHT22;14708;50.872;5.306;2023-06-10T10:53:44;26.20;51.70
27188;DHT22;14708;50.872;5.306;2023-06-10T10:56:30;26.20;51.50
27188;DHT22;14708;50.872;5.306;2023-06-10T10:59:05;26.30;52.40
27188;DHT22;14708;50.872;5.306;2023-06-10T11:01:41;26.30;52.30
27188;DHT22;14708;50.872;5.306;2023-06-10T11:04:08;26.30;52.30
27188;DHT22;14708;50.872;5.306;2023-06-10T11:06:36;26.30;52.40
27188;DHT22;14708;50.872;5.306;2023-06-10T11:09:25;26.20;52.50
27188;DHT22;14708;50.872;5.306;2023-06-10T11:11:51;26.20;52.70
27188;DHT22;14708;50.872;5.306;2023-06-10T11:14:29;26.30;52.90
27188;DHT22;14708;50.872;5.306;2023-06-10T11:16:59;26.20;52.90
27188;DHT22;14708;50.872;5.306;2023-06-10T11:19:35;26.30;52.90
27188;DHT22;14708;50.872;5.306;2023-06-10T11:22:02;26.30;52.40
27188;DHT22;14708;50.872;5.306;2023-06-10T11:24:29;26.30;52.30
27188;DHT22;14708;50.872;5.306;2023-06-10T11:26:55;26.30;52.30
27188;DHT22;14708;50.872;5.306;2023-06-10T11:29:39;26.40;52.30
27188;DHT22;14708;50.872;5.306;2023-06-10T11:32:06;26.40;51.90
27188;DHT22;14708;50.872;5.306;2023-06-10T11:34:32;26.40;52.10
27188;DHT22;14708;50.872;5.306;2023-06-10T11:36:57;26.40;51.80
27188;DHT22;14708;50.872;5.306;2023-06-10T11:39:25;26.40;51.50
27188;DHT22;14708;50.872;5.306;2023-06-10T11:41:52;26.40;51.30
27188;DHT22;14708;50.872;5.306;2023-06-10T11:44:18;26.40;51.20
27188;DHT22;14708;50.872;5.306;2023-06-10T11:46:44;26.40;51.50
27188;DHT22;14708;50.872;5.306;2023-06-10T11:49:11;26.40;51.20
27188;DHT22;14708;50.872;5.306;2023-06-10T11:51:38;26.30;51.30
27188;DHT22;14708;50.872;5.306;2023-06-10T11:54:07;26.30;51.50
27188;DHT22;14708;50.872;5.306;2023-06-10T11:56:34;26.30;51.40
27188;DHT22;14708;50.872;5.306;2023-06-10T11:59:01;26.20;51.50
27188;DHT22;14708;50.872;5.306;2023-06-10T12:01:32;26.20;51.60
27188;DHT22;14708;50.872;5.306;2023-06-10T12:06:25;26.20;51.70
27188;DHT22;14708;50.872;5.306;2023-06-10T12:08:50;26.30;52.00
27188;DHT22;14708;50.872;5.306;2023-06-10T12:11:16;26.30;51.90
27188;DHT22;14708;50.872;5.306;2023-06-10T12:13:46;26.30;51.80
27188;DHT22;14708;50.872;5.306;2023-06-10T12:16:14;26.30;51.70
27188;DHT22;14708;50.872;5.306;2023-06-10T12:18:39;26.30;52.20
27188;DHT22;14708;50.872;5.306;2023-06-10T12:21:19;26.30;52.30
27188;DHT22;14708;50.872;5.306;2023-06-10T12:26:54;26.20;52.50
27188;DHT22;14708;50.872;5.306;2023-06-10T12:29:22;26.20;52.40
27188;DHT22;14708;50.872;5.306;2023-06-10T12:32:08;26.20;52.30
27188;DHT22;14708;50.872;5.306;2023-06-10T12:34:38;26.20;52.40
27188;DHT22;14708;50.872;5.306;2023-06-10T12:37:14;26.20;52.00
27188;DHT22;14708;50.872;5.306;2023-06-10T12:39:41;26.20;51.70
27188;DHT22;14708;50.872;5.306;2023-06-10T12:42:08;26.30;51.70
27188;DHT22;14708;50.872;5.306;2023-06-10T12:44:38;26.20;51.50
27188;DHT22;14708;50.872;5.306;2023-06-10T12:47:10;26.20;51.50
27188;DHT22;14708;50.872;5.306;2023-06-10T12:49:39;26.20;51.70
27188;DHT22;14708;50.872;5.306;2023-06-10T12:52:06;26.10;51.50
27188;DHT22;14708;50.872;5.306;2023-06-10T12:54:32;26.10;51.50
27188;DHT22;14708;50.872;5.306;2023-06-10T12:56:58;26.10;51.50
27188;DHT22;14708;50.872;5.306;2023-06-10T12:59:24;26.30;51.50
27188;DHT22;14708;50.872;5.306;2023-06-10T13:01:53;26.30;51.30
27188;DHT22;14708;50.872;5.306;2023-06-10T13:04:19;26.40;51.50
27188;DHT22;14708;50.872;5.306;2023-06-10T13:06:46;26.50;51.20
27188;DHT22;14708;50.872;5.306;2023-06-10T13:09:12;26.40;51.10
27188;DHT22;14708;50.872;5.306;2023-06-10T13:11:38;26.50;50.90
27188;DHT22;14708;50.872;5.306;2023-06-10T13:14:04;26.50;50.90
27188;DHT22;14708;50.872;5.306;2023-06-10T13:16:32;26.50;50.70
27188;DHT22;14708;50.872;5.306;2023-06-10T13:18:58;26.50;50.60
27188;DHT22;14708;50.872;5.306;2023-06-10T13:21:24;26.50;50.60
27188;DHT22;14708;50.872;5.306;2023-06-10T13:23:50;26.50;50.50
27188;DHT22;14708;50.872;5.306;2023-06-10T13:26:16;26.50;50.50
27188;DHT22;14708;50.872;5.306;2023-06-10T13:28:45;26.40;50.40
27188;DHT22;14708;50.872;5.306;2023-06-10T13:31:11;26.40;50.50
27188;DHT22;14708;50.872;5.306;2023-06-10T13:33:37;26.30;49.30
27188;DHT22;14708;50.872;5.306;2023-06-10T13:36:03;26.30;49.10
27188;DHT22;14708;50.872;5.306;2023-06-10T13:38:28;26.20;49.00
27188;DHT22;14708;50.872;5.306;2023-06-10T13:40:54;26.20;49.70
27188;DHT22;14708;50.872;5.306;2023-06-10T13:43:20;26.20;50.50
27188;DHT22;14708;50.872;5.306;2023-06-10T13:45:46;26.10;49.90
27188;DHT22;14708;50.872;5.306;2023-06-10T13:48:11;26.20;50.30
27188;DHT22;14708;50.872;5.306;2023-06-10T13:50:37;26.20;50.50
27188;DHT22;14708;50.872;5.306;2023-06-10T13:53:03;26.10;50.50
27188;DHT22;14708;50.872;5.306;2023-06-10T13:55:29;26.10;51.10
27188;DHT22;14708;50.872;5.306;2023-06-10T13:57:54;26.10;50.80
27188;DHT22;14708;50.872;5.306;2023-06-10T14:00:20;26.10;50.70
27188;DHT22;14708;50.872;5.306;2023-06-10T14:02:46;26.10;50.70
27188;DHT22;14708;50.872;5.306;2023-06-10T14:05:12;26.10;50.90
27188;DHT22;14708;50.872;5.306;2023-06-10T14:07:37;26.10;50.70
27188;DHT22;14708;50.872;5.306;2023-06-10T14:10:03;26.10;50.80
27188;DHT22;14708;50.872;5.306;2023-06-10T14:12:29;26.10;51.00
27188;DHT22;14708;50.872;5.306;2023-06-10T14:14:55;26.10;50.90
27188;DHT22;14708;50.872;5.306;2023-06-10T14:17:20;26.10;50.80
27188;DHT22;14708;50.872;5.306;2023-06-10T14:19:47;26.10;50.70
27188;DHT22;14708;50.872;5.306;2023-06-10T14:22:13;26.20;50.90
27188;DHT22;14708;50.872;5.306;2023-06-10T14:24:39;26.20;51.00
27188;DHT22;14708;50.872;5.306;2023-06-10T14:27:04;26.10;50.80
27188;DHT22;14708;50.872;5.306;2023-06-10T14:29:30;26.10;51.00
27188;DHT22;14708;50.872;5.306;2023-06-10T14:31:57;26.10;51.10
27188;DHT22;14708;50.872;5.306;2023-06-10T14:34:22;26.10;51.00
27188;DHT22;14708;50.872;5.306;2023-06-10T14:36:54;26.20;50.80
27188;DHT22;14708;50.872;5.306;2023-06-10T14:39:20;26.20;51.10
27188;DHT22;14708;50.872;5.306;2023-06-10T14:41:45;26.20;51.10
27188;DHT22;14708;50.872;5.306;2023-06-10T14:44:11;26.20;51.00
27188;DHT22;14708;50.872;5.306;2023-06-10T14:46:36;26.20;51.10
27188;DHT22;14708;50.872;5.306;2023-06-10T14:49:02;26.20;51.10
27188;DHT22;14708;50.872;5.306;2023-06-10T14:51:28;26.20;51.00
27188;DHT22;14708;50.872;5.306;2023-06-10T14:53:53;26.20;51.20
27188;DHT22;14708;50.872;5.306;2023-06-10T14:56:19;26.20;51.10
27188;DHT22;14708;50.872;5.306;2023-06-10T14:58:44;26.20;51.20
27188;DHT22;14708;50.872;5.306;2023-06-10T15:01:10;26.20;51.80
27188;DHT22;14708;50.872;5.306;2023-06-10T15:03:36;26.20;51.30
27188;DHT22;14708;50.872;5.306;2023-06-10T15:06:01;26.30;51.50
27188;DHT22;14708;50.872;5.306;2023-06-10T15:08:27;26.30;51.50
27188;DHT22;14708;50.872;5.306;2023-06-10T15:10:55;26.30;51.70
27188;DHT22;14708;50.872;5.306;2023-06-10T15:13:22;26.30;52.00
27188;DHT22;14708;50.872;5.306;2023-06-10T15:15:48;26.30;51.70
27188;DHT22;14708;50.872;5.306;2023-06-10T15:18:14;26.30;51.70
27188;DHT22;14708;50.872;5.306;2023-06-10T15:20:39;26.40;51.90
27188;DHT22;14708;50.872;5.306;2023-06-10T15:23:05;26.40;51.90
27188;DHT22;14708;50.872;5.306;2023-06-10T15:25:33;26.40;51.90
27188;DHT22;14708;50.872;5.306;2023-06-10T15:27:58;26.40;51.60
27188;DHT22;14708;50.872;5.306;2023-06-10T15:30:24;26.40;51.60
27188;DHT22;14708;50.872;5.306;2023-06-10T15:32:50;26.40;51.60
27188;DHT22;14708;50.872;5.306;2023-06-10T15:35:15;26.40;51.90
27188;DHT22;14708;50.872;5.306;2023-06-10T15:37:41;26.50;52.50
27188;DHT22;14708;50.872;5.306;2023-06-10T15:40:07;26.60;52.60